createdAt,value
2019-01-17T00:00:38.178Z,7.68
2019-01-17T00:04:47.948Z,7.66
2019-01-17T00:08:55.263Z,7.63
2019-01-17T00:13:05.280Z,7.61
2019-01-17T00:17:24.643Z,7.53
2019-01-17T00:21:43.699Z,7.48
2019-01-17T00:25:51.021Z,7.53
2019-01-17T00:30:14.252Z,7.57
2019-01-17T00:34:27.144Z,7.48
2019-01-17T00:38:40.207Z,7.41
2019-01-17T00:42:59.422Z,7.33
2019-01-17T00:47:12.593Z,7.42
2019-01-17T00:51:32.754Z,7.46
2019-01-17T00:55:45.767Z,7.43
2019-01-17T01:00:02.221Z,7.40
2019-01-17T01:04:15.400Z,7.30
2019-01-17T01:08:38.585Z,7.31
2019-01-17T01:13:01.927Z,7.34
2019-01-17T01:17:09.321Z,7.44
2019-01-17T01:21:31.342Z,7.72
2019-01-17T01:25:45.719Z,7.86
2019-01-17T01:30:04.818Z,7.95
2019-01-17T01:34:18.935Z,8.08
2019-01-17T01:38:28.648Z,8.11
2019-01-17T01:42:34.094Z,8.07
2019-01-17T01:46:47.440Z,8.16
2019-01-17T01:51:11.015Z,8.29
2019-01-17T01:55:16.724Z,8.42
2019-01-17T01:59:22.479Z,8.53
2019-01-17T02:03:28.158Z,8.50
2019-01-17T02:07:33.854Z,8.59
2019-01-17T02:11:39.548Z,8.71
2019-01-17T02:15:45.266Z,8.86
2019-01-17T02:19:50.944Z,9.03
2019-01-17T02:23:56.635Z,9.12
2019-01-17T02:28:02.455Z,9.14
2019-01-17T02:32:08.144Z,9.17
2019-01-17T02:36:13.848Z,9.15
2019-01-17T02:40:19.634Z,9.13
2019-01-17T02:44:25.445Z,8.99
2019-01-17T02:48:31.141Z,8.98
2019-01-17T02:52:37.165Z,8.95
2019-01-17T02:56:43.113Z,9.02
2019-01-17T03:00:48.828Z,9.12
2019-01-17T03:04:54.514Z,9.27
2019-01-17T03:09:00.246Z,9.28
2019-01-17T03:13:06.038Z,9.25
2019-01-17T03:17:11.790Z,9.18
2019-01-17T03:21:17.557Z,9.14
2019-01-17T03:25:23.383Z,9.22
2019-01-17T03:29:30.577Z,9.23
2019-01-17T03:33:37.233Z,9.20
2019-01-17T03:37:43.121Z,8.98
2019-01-17T03:41:48.809Z,8.99
2019-01-17T03:45:54.478Z,8.92
2019-01-17T03:50:00.327Z,8.79
2019-01-17T03:54:06.180Z,8.77
2019-01-17T03:58:18.221Z,8.92
2019-01-17T04:02:23.950Z,9.00
2019-01-17T04:06:29.620Z,8.75
2019-01-17T04:10:35.305Z,8.91
2019-01-17T04:14:40.991Z,8.96
2019-01-17T04:18:46.672Z,8.70
2019-01-17T04:22:52.360Z,8.70
2019-01-17T04:26:58.029Z,8.68
2019-01-17T04:31:03.742Z,8.90
2019-01-17T04:35:09.705Z,8.96
2019-01-17T04:39:15.410Z,8.99
2019-01-17T04:43:21.087Z,8.87
2019-01-17T04:47:26.791Z,8.56
2019-01-17T04:51:32.479Z,8.58
2019-01-17T04:55:38.162Z,8.55
2019-01-17T04:59:43.847Z,8.61
2019-01-17T05:03:49.530Z,8.77
2019-01-17T05:07:55.290Z,8.66
2019-01-17T05:12:00.974Z,8.68
2019-01-17T05:16:06.816Z,8.35
2019-01-17T05:20:15.825Z,8.46
2019-01-17T05:24:22.529Z,8.52
2019-01-17T05:28:28.198Z,8.71
2019-01-17T05:32:36.837Z,8.63
2019-01-17T05:36:41.255Z,8.58
2019-01-17T05:40:46.942Z,8.46
2019-01-17T05:44:52.599Z,8.49
2019-01-17T05:48:58.277Z,8.57
2019-01-17T05:53:04.167Z,8.76
2019-01-17T05:57:09.863Z,8.63
2019-01-17T06:01:15.549Z,8.76
2019-01-17T06:05:21.440Z,8.90
2019-01-17T06:09:27.133Z,9.02
2019-01-17T06:13:33.081Z,8.98
2019-01-17T06:17:38.772Z,9.21
2019-01-17T06:21:44.456Z,9.33
2019-01-17T06:25:50.146Z,9.37
2019-01-17T06:29:55.832Z,9.40
2019-01-17T06:34:01.531Z,9.38
2019-01-17T06:38:07.348Z,9.10
2019-01-17T06:42:13.017Z,9.21
2019-01-17T06:46:18.705Z,9.21
2019-01-17T06:50:24.386Z,9.25
2019-01-17T06:54:30.068Z,9.24
2019-01-17T06:58:35.789Z,9.30
2019-01-17T07:02:41.676Z,9.13
2019-01-17T07:06:47.428Z,9.26
2019-01-17T07:10:53.116Z,9.10
2019-01-17T07:14:59.777Z,8.89
2019-01-17T07:19:05.486Z,8.97
2019-01-17T07:23:11.199Z,8.86
2019-01-17T07:27:16.887Z,8.98
2019-01-17T07:31:22.579Z,8.86
2019-01-17T07:35:28.401Z,8.84
2019-01-17T07:39:34.061Z,9.03
2019-01-17T07:43:39.749Z,9.16
2019-01-17T07:47:45.425Z,8.94
2019-01-17T07:51:51.187Z,8.75
2019-01-17T07:55:56.891Z,8.92
2019-01-17T08:00:02.584Z,9.10
2019-01-17T08:04:08.330Z,9.18
2019-01-17T08:08:14.196Z,9.13
2019-01-17T08:12:19.924Z,9.20
2019-01-17T08:16:25.626Z,9.25
2019-01-17T08:20:31.316Z,9.08
2019-01-17T08:24:36.994Z,9.08
2019-01-17T08:28:42.694Z,9.09
2019-01-17T08:32:48.380Z,8.94
2019-01-17T08:36:54.110Z,8.98
2019-01-17T08:40:59.850Z,8.76
2019-01-17T08:45:09.786Z,8.80
2019-01-17T08:49:15.461Z,8.96
2019-01-17T08:53:21.238Z,8.86
2019-01-17T08:57:26.938Z,9.14
2019-01-17T09:01:32.637Z,9.18
2019-01-17T09:05:38.399Z,9.41
2019-01-17T09:09:44.080Z,9.31
2019-01-17T09:13:49.785Z,9.09
2019-01-17T09:17:55.596Z,9.08
2019-01-17T09:22:01.299Z,9.11
2019-01-17T09:26:07.648Z,9.31
2019-01-17T09:30:22.000Z,9.23
2019-01-17T09:34:27.700Z,9.32
2019-01-17T09:38:51.185Z,9.74
2019-01-17T09:42:56.875Z,9.86
2019-01-17T09:47:02.561Z,9.95
2019-01-17T09:51:08.313Z,9.84
2019-01-17T09:55:14.189Z,9.70
2019-01-17T09:59:19.868Z,9.63
2019-01-17T10:08:00.779Z,10.09
2019-01-17T10:12:06.535Z,9.82
2019-01-17T10:16:16.826Z,9.46
2019-01-17T10:20:27.083Z,9.48
2019-01-17T10:24:48.933Z,9.40
2019-01-17T10:29:24.666Z,9.26
2019-01-17T10:33:36.637Z,9.21
2019-01-17T10:38:14.960Z,9.48
2019-01-17T10:42:45.696Z,9.46
2019-01-17T10:47:27.331Z,9.34
2019-01-17T10:52:02.338Z,9.50
2019-01-17T10:56:28.085Z,9.33
2019-01-17T11:00:53.329Z,9.37
2019-01-17T11:05:22.695Z,9.35
2019-01-17T11:09:53.547Z,9.29
2019-01-17T11:14:14.757Z,9.59
2019-01-17T11:18:44.161Z,9.45
2019-01-17T11:23:09.214Z,9.48
2019-01-17T11:27:58.348Z,9.61
2019-01-17T11:32:20.295Z,9.37
2019-01-17T11:36:52.949Z,9.42
2019-01-17T11:41:22.177Z,9.57
2019-01-17T11:45:44.167Z,9.61
2019-01-17T11:50:34.664Z,9.57
2019-01-17T11:54:53.562Z,9.48
2019-01-17T11:59:08.837Z,9.18
2019-01-17T12:03:27.647Z,9.17
2019-01-17T12:07:33.337Z,8.99
2019-01-17T12:11:39.022Z,9.31
2019-01-17T12:15:44.695Z,9.44
2019-01-17T12:19:50.451Z,9.42
2019-01-17T12:23:56.141Z,9.51
2019-01-17T12:28:01.875Z,9.64
2019-01-17T12:32:07.560Z,9.58
2019-01-17T12:36:13.228Z,9.76
2019-01-17T12:40:18.982Z,9.95
2019-01-17T12:44:24.744Z,10.09
2019-01-17T12:48:30.482Z,10.21
2019-01-17T12:52:36.544Z,10.10
2019-01-17T12:56:42.218Z,9.84
2019-01-17T13:00:47.937Z,9.91
2019-01-17T13:04:53.624Z,9.82
2019-01-17T13:08:59.301Z,9.75
2019-01-17T13:13:05.016Z,9.85
2019-01-17T13:17:10.725Z,10.23
2019-01-17T13:21:16.533Z,9.77
2019-01-17T13:25:22.292Z,9.47
2019-01-17T13:29:27.970Z,9.60
2019-01-17T13:33:33.646Z,9.66
2019-01-17T13:37:39.345Z,9.57
2019-01-17T13:41:45.114Z,9.47
2019-01-17T13:45:50.848Z,9.36
2019-01-17T13:49:56.535Z,8.99
2019-01-17T13:54:02.251Z,8.98
2019-01-17T13:58:07.925Z,8.84
2019-01-17T14:02:13.819Z,9.10
2019-01-17T14:06:19.585Z,9.31
2019-01-17T14:10:25.254Z,9.47
2019-01-17T14:14:30.925Z,9.35
2019-01-17T14:18:36.613Z,8.93
2019-01-17T14:22:42.293Z,8.80
2019-01-17T14:26:48.013Z,8.84
2019-01-17T14:30:53.960Z,8.88
2019-01-17T14:34:59.649Z,9.07
2019-01-17T14:39:07.253Z,9.24
2019-01-17T14:43:12.931Z,9.27
2019-01-17T14:47:18.614Z,8.73
2019-01-17T14:51:24.290Z,8.81
2019-01-17T14:55:30.042Z,8.48
2019-01-17T14:59:35.726Z,8.64
2019-01-17T15:03:41.424Z,8.61
2019-01-17T15:07:47.230Z,8.56
2019-01-17T15:11:52.962Z,8.79
2019-01-17T15:15:58.722Z,8.94
2019-01-17T15:20:07.547Z,9.02
2019-01-17T15:24:13.241Z,8.66
2019-01-17T15:28:18.920Z,8.36
2019-01-17T15:32:24.975Z,8.33
2019-01-17T15:36:30.663Z,8.44
2019-01-17T15:40:36.427Z,8.28
2019-01-17T15:44:42.121Z,8.22
2019-01-17T15:48:50.726Z,8.28
2019-01-17T15:52:56.435Z,8.23
2019-01-17T15:57:50.054Z,8.26
2019-01-17T16:01:55.789Z,8.44
2019-01-17T16:06:50.966Z,8.41
2019-01-17T16:10:56.707Z,8.22
2019-01-17T16:15:50.582Z,8.19
2019-01-17T16:19:56.242Z,8.13
2019-01-17T16:28:51.405Z,7.89
2019-01-17T16:33:48.108Z,7.79
2019-01-17T16:37:53.944Z,7.90
2019-01-17T16:42:47.217Z,7.72
2019-01-17T16:46:52.997Z,7.29
2019-01-17T16:50:58.719Z,7.18
2019-01-17T16:55:49.357Z,7.32
2019-01-17T16:59:55.044Z,7.26
2019-01-17T17:04:00.715Z,7.14
2019-01-17T17:08:06.560Z,7.28
2019-01-17T17:12:48.376Z,7.41
2019-01-17T17:16:54.084Z,7.56
2019-01-17T17:20:59.782Z,7.69
2019-01-17T17:25:07.927Z,7.55
2019-01-17T17:29:13.597Z,7.65
2019-01-17T17:33:49.208Z,7.84
2019-01-17T17:38:48.478Z,7.79
2019-01-17T17:42:54.172Z,6.89
2019-01-17T17:46:59.947Z,6.34
2019-01-17T17:51:05.783Z,6.14
2019-01-17T17:55:14.700Z,6.24
2019-01-17T17:59:20.463Z,6.43
2019-01-17T18:03:49.878Z,6.70
2019-01-17T18:07:55.575Z,6.80
2019-01-17T18:12:01.342Z,6.87
2019-01-17T18:16:07.131Z,6.99
2019-01-17T18:20:15.346Z,7.10
2019-01-17T18:24:21.044Z,7.13
2019-01-17T18:28:26.746Z,7.20
2019-01-17T18:32:47.757Z,6.95
2019-01-17T18:36:53.569Z,6.80
2019-01-17T18:40:59.339Z,6.86
2019-01-17T18:45:09.960Z,6.86
2019-01-17T18:49:15.798Z,6.74
2019-01-17T18:53:51.400Z,6.55
2019-01-17T18:57:57.225Z,6.70
2019-01-17T19:02:03.020Z,6.68
2019-01-17T19:06:09.067Z,6.80
2019-01-17T19:10:18.462Z,6.70
2019-01-17T19:14:24.208Z,6.61
2019-01-17T19:18:29.991Z,6.40
2019-01-17T19:22:53.850Z,6.11
2019-01-17T19:26:59.588Z,6.07
2019-01-17T19:31:05.388Z,6.17
2019-01-17T19:35:50.035Z,6.10
2019-01-17T19:46:48.108Z,5.92
2019-01-17T20:12:53.688Z,6.32
2019-01-17T20:27:50.672Z,6.65
2019-01-17T20:38:48.735Z,6.89
2019-01-17T20:42:54.741Z,7.12
2019-01-17T20:47:48.552Z,7.36
2019-01-17T20:57:51.367Z,6.48
2019-01-17T21:12:51.610Z,5.59
2019-01-17T21:16:57.352Z,5.61
2019-01-17T21:26:56.091Z,5.74
2019-01-17T21:31:49.759Z,5.77
2019-01-17T21:41:50.810Z,5.72
2019-01-17T22:11:53.896Z,6.22
2019-01-17T22:16:50.065Z,6.37
2019-01-17T22:26:51.240Z,6.57
2019-01-17T22:31:49.490Z,6.61
2019-01-17T22:36:49.435Z,6.72
2019-01-17T22:40:55.378Z,6.70
2019-01-17T22:50:50.478Z,6.56
2019-01-17T22:55:49.693Z,6.10
2019-01-17T23:00:50.937Z,6.12
2019-01-17T23:04:56.617Z,6.08
2019-01-17T23:09:02.317Z,5.67
2019-01-17T23:13:09.251Z,5.47
2019-01-17T23:17:15.012Z,5.27
2019-01-17T23:26:31.596Z,4.93
2019-01-17T23:30:52.308Z,4.92
2019-01-17T23:34:57.994Z,4.97
2019-01-17T23:39:06.761Z,4.97
2019-01-17T23:43:12.433Z,4.94
2019-01-17T23:47:18.114Z,4.92
2019-01-17T23:57:50.134Z,4.78
